KDBQ

Dubuque Regional Airport

Dubuque, Iowa, USA
METAR KDBQ 222053Z 28013G20KT 10SM CLR 18/M01 A3005 RMK AO2 SLP179 T01831011 56013
Observed Flight Rules
Oct-22 @ 20:53 UTC (23 minutes ago) Visual Flight Rules
Wind Visibility Clouds
280° at 13 knots
 Gusting to 20 knots
10 miles
  • Clear skies
Temperatures Readings
Current 18°C / 64°F
Dewpoint -1°C / 30°F
Humidity 28%
Altimeter 30.05" Hg
Pressure 1017.9 hPa
Elevation 326
METAR KDBQ 222053Z 28013G20KT 10SM CLR 18/M01 A3005 RMK AO2 SLP179 T01831011 56013
Observed Flight Rules
Oct-22 @ 20:53 UTC
(23 minutes ago)
VFR
Wind Visibility
280° at 13 knots
 Gusting to 20 knots
10 miles
Clouds
  • Clear skies
Temperature Dewpoint
18°C / 64°F -1°C / 30°F
Humidity Altimeter Pressure
28% 30.05" Hg 1017.9 hPa